sensor_id;sensor_type;location;lat;lon;timestamp;temperature;humidity
78467;SHT31;67759;51.972;5.650;2023-12-20T00:00:05;12.7;57.6
78467;SHT31;67759;51.972;5.650;2023-12-20T00:02:34;12.7;57.6
78467;SHT31;67759;51.972;5.650;2023-12-20T00:05:03;12.7;57.7
78467;SHT31;67759;51.972;5.650;2023-12-20T00:07:32;12.7;57.8
78467;SHT31;67759;51.972;5.650;2023-12-20T00:10:01;12.7;57.7
78467;SHT31;67759;51.972;5.650;2023-12-20T00:12:29;12.7;57.5
78467;SHT31;67759;51.972;5.650;2023-12-20T00:14:58;12.7;57.1
78467;SHT31;67759;51.972;5.650;2023-12-20T00:17:27;12.7;57.0
78467;SHT31;67759;51.972;5.650;2023-12-20T00:19:55;12.6;56.9
78467;SHT31;67759;51.972;5.650;2023-12-20T00:22:24;12.6;56.9
78467;SHT31;67759;51.972;5.650;2023-12-20T00:24:52;12.5;56.9
78467;SHT31;67759;51.972;5.650;2023-12-20T00:27:21;12.5;56.9
78467;SHT31;67759;51.972;5.650;2023-12-20T00:29:49;12.4;56.9
78467;SHT31;67759;51.972;5.650;2023-12-20T00:32:18;12.4;57.1
78467;SHT31;67759;51.972;5.650;2023-12-20T00:34:46;12.4;57.1
78467;SHT31;67759;51.972;5.650;2023-12-20T00:37:15;12.3;57.1
78467;SHT31;67759;51.972;5.650;2023-12-20T00:39:44;12.3;57.2
78467;SHT31;67759;51.972;5.650;2023-12-20T00:42:13;12.3;57.7
78467;SHT31;67759;51.972;5.650;2023-12-20T00:44:46;12.4;57.5
78467;SHT31;67759;51.972;5.650;2023-12-20T00:47:14;12.6;57.1
78467;SHT31;67759;51.972;5.650;2023-12-20T00:49:44;12.8;56.0
78467;SHT31;67759;51.972;5.650;2023-12-20T00:52:12;12.9;55.2
78467;SHT31;67759;51.972;5.650;2023-12-20T00:54:44;12.9;54.7
78467;SHT31;67759;51.972;5.650;2023-12-20T00:57:12;12.9;54.5
78467;SHT31;67759;51.972;5.650;2023-12-20T00:59:42;12.9;54.4
78467;SHT31;67759;51.972;5.650;2023-12-20T01:02:11;12.8;54.4
78467;SHT31;67759;51.972;5.650;2023-12-20T01:04:40;12.7;54.5
78467;SHT31;67759;51.972;5.650;2023-12-20T01:07:09;12.7;54.8
78467;SHT31;67759;51.972;5.650;2023-12-20T01:09:39;12.6;55.0
78467;SHT31;67759;51.972;5.650;2023-12-20T01:12:08;12.6;55.0
78467;SHT31;67759;51.972;5.650;2023-12-20T01:14:37;12.5;55.2
78467;SHT31;67759;51.972;5.650;2023-12-20T01:17:06;12.4;55.3
78467;SHT31;67759;51.972;5.650;2023-12-20T01:19:35;12.4;55.6
78467;SHT31;67759;51.972;5.650;2023-12-20T01:22:04;12.3;55.7
78467;SHT31;67759;51.972;5.650;2023-12-20T01:24:33;12.3;55.9
78467;SHT31;67759;51.972;5.650;2023-12-20T01:27:02;12.2;56.0
78467;SHT31;67759;51.972;5.650;2023-12-20T01:29:30;12.2;56.0
78467;SHT31;67759;51.972;5.650;2023-12-20T01:31:59;12.2;56.0
78467;SHT31;67759;51.972;5.650;2023-12-20T01:34:27;12.1;56.1
78467;SHT31;67759;51.972;5.650;2023-12-20T01:36:56;12.1;56.2
78467;SHT31;67759;51.972;5.650;2023-12-20T01:39:25;12.0;56.3
78467;SHT31;67759;51.972;5.650;2023-12-20T01:41:55;12.0;56.4
78467;SHT31;67759;51.972;5.650;2023-12-20T01:44:23;12.0;56.5
78467;SHT31;67759;51.972;5.650;2023-12-20T01:46:53;11.9;56.7
78467;SHT31;67759;51.972;5.650;2023-12-20T01:49:24;11.9;56.8
78467;SHT31;67759;51.972;5.650;2023-12-20T01:51:57;11.9;56.9
78467;SHT31;67759;51.972;5.650;2023-12-20T01:54:26;11.9;57.0
78467;SHT31;67759;51.972;5.650;2023-12-20T01:56:57;11.9;57.1
78467;SHT31;67759;51.972;5.650;2023-12-20T01:59:26;11.9;57.1
78467;SHT31;67759;51.972;5.650;2023-12-20T02:01:56;11.9;57.1
78467;SHT31;67759;51.972;5.650;2023-12-20T02:04:25;12.0;57.2
78467;SHT31;67759;51.972;5.650;2023-12-20T02:06:58;12.0;57.3
78467;SHT31;67759;51.972;5.650;2023-12-20T02:09:27;12.1;57.4
78467;SHT31;67759;51.972;5.650;2023-12-20T02:11:57;12.1;57.4
78467;SHT31;67759;51.972;5.650;2023-12-20T02:14:26;12.1;57.0
78467;SHT31;67759;51.972;5.650;2023-12-20T02:16:55;12.2;56.8
78467;SHT31;67759;51.972;5.650;2023-12-20T02:19:23;12.2;56.8
78467;SHT31;67759;51.972;5.650;2023-12-20T02:22:08;12.3;56.7
78467;SHT31;67759;51.972;5.650;2023-12-20T02:24:37;12.3;56.5
78467;SHT31;67759;51.972;5.650;2023-12-20T02:27:07;12.4;56.4
78467;SHT31;67759;51.972;5.650;2023-12-20T02:29:37;12.4;56.5
78467;SHT31;67759;51.972;5.650;2023-12-20T02:32:06;12.5;56.3
78467;SHT31;67759;51.972;5.650;2023-12-20T02:34:34;12.6;55.8
78467;SHT31;67759;51.972;5.650;2023-12-20T02:37:03;12.7;55.6
78467;SHT31;67759;51.972;5.650;2023-12-20T02:39:32;12.7;55.6
78467;SHT31;67759;51.972;5.650;2023-12-20T02:42:01;12.8;55.5
78467;SHT31;67759;51.972;5.650;2023-12-20T02:44:31;12.8;55.4
78467;SHT31;67759;51.972;5.650;2023-12-20T02:47:00;12.8;55.3
78467;SHT31;67759;51.972;5.650;2023-12-20T02:49:29;12.9;55.3
78467;SHT31;67759;51.972;5.650;2023-12-20T02:51:59;12.9;55.0
78467;SHT31;67759;51.972;5.650;2023-12-20T02:54:28;12.9;54.7
78467;SHT31;67759;51.972;5.650;2023-12-20T02:56:57;13.0;54.6
78467;SHT31;67759;51.972;5.650;2023-12-20T02:59:25;13.0;54.5
78467;SHT31;67759;51.972;5.650;2023-12-20T03:01:56;13.1;54.1
78467;SHT31;67759;51.972;5.650;2023-12-20T03:04:25;13.2;53.9
78467;SHT31;67759;51.972;5.650;2023-12-20T03:06:54;13.3;53.4
78467;SHT31;67759;51.972;5.650;2023-12-20T03:09:22;13.3;53.0
78467;SHT31;67759;51.972;5.650;2023-12-20T03:11:51;13.3;53.0
78467;SHT31;67759;51.972;5.650;2023-12-20T03:14:20;13.2;53.1
78467;SHT31;67759;51.972;5.650;2023-12-20T03:16:49;13.2;53.3
78467;SHT31;67759;51.972;5.650;2023-12-20T03:19:19;13.2;53.6
78467;SHT31;67759;51.972;5.650;2023-12-20T03:21:48;13.1;53.6
78467;SHT31;67759;51.972;5.650;2023-12-20T03:24:17;13.1;53.8
78467;SHT31;67759;51.972;5.650;2023-12-20T03:26:47;13.0;53.9
78467;SHT31;67759;51.972;5.650;2023-12-20T03:29:15;13.0;54.1
78467;SHT31;67759;51.972;5.650;2023-12-20T03:31:44;12.9;54.4
78467;SHT31;67759;51.972;5.650;2023-12-20T03:34:15;12.9;54.7
78467;SHT31;67759;51.972;5.650;2023-12-20T03:36:44;12.9;54.6
78467;SHT31;67759;51.972;5.650;2023-12-20T03:39:14;12.9;54.6
78467;SHT31;67759;51.972;5.650;2023-12-20T03:41:42;12.8;54.8
78467;SHT31;67759;51.972;5.650;2023-12-20T03:44:11;12.8;54.9
78467;SHT31;67759;51.972;5.650;2023-12-20T03:46:40;12.8;55.0
78467;SHT31;67759;51.972;5.650;2023-12-20T03:49:09;12.8;54.9
78467;SHT31;67759;51.972;5.650;2023-12-20T03:51:39;12.8;55.0
78467;SHT31;67759;51.972;5.650;2023-12-20T03:54:10;12.8;55.1
78467;SHT31;67759;51.972;5.650;2023-12-20T03:56:41;12.8;55.3
78467;SHT31;67759;51.972;5.650;2023-12-20T03:59:11;12.8;55.5
78467;SHT31;67759;51.972;5.650;2023-12-20T04:01:43;12.8;55.3
78467;SHT31;67759;51.972;5.650;2023-12-20T04:04:13;12.7;55.2
78467;SHT31;67759;51.972;5.650;2023-12-20T04:06:42;12.7;55.1
78467;SHT31;67759;51.972;5.650;2023-12-20T04:09:11;12.7;55.3
78467;SHT31;67759;51.972;5.650;2023-12-20T04:11:40;12.7;55.5
78467;SHT31;67759;51.972;5.650;2023-12-20T04:14:11;12.7;55.6
78467;SHT31;67759;51.972;5.650;2023-12-20T04:16:43;12.8;55.7
78467;SHT31;67759;51.972;5.650;2023-12-20T04:19:12;12.9;55.7
78467;SHT31;67759;51.972;5.650;2023-12-20T04:21:42;13.0;55.3
78467;SHT31;67759;51.972;5.650;2023-12-20T04:24:11;13.1;55.0
78467;SHT31;67759;51.972;5.650;2023-12-20T04:26:40;13.2;54.5
78467;SHT31;67759;51.972;5.650;2023-12-20T04:29:08;13.2;54.3
78467;SHT31;67759;51.972;5.650;2023-12-20T04:31:37;13.3;54.3
78467;SHT31;67759;51.972;5.650;2023-12-20T04:34:06;13.3;54.2
78467;SHT31;67759;51.972;5.650;2023-12-20T04:36:35;13.3;54.2
78467;SHT31;67759;51.972;5.650;2023-12-20T04:39:04;13.4;54.2
78467;SHT31;67759;51.972;5.650;2023-12-20T04:41:33;13.4;54.2
78467;SHT31;67759;51.972;5.650;2023-12-20T04:44:03;13.4;54.1
78467;SHT31;67759;51.972;5.650;2023-12-20T04:46:33;13.4;54.0
78467;SHT31;67759;51.972;5.650;2023-12-20T04:49:02;13.4;54.1
78467;SHT31;67759;51.972;5.650;2023-12-20T04:51:35;13.4;54.0
78467;SHT31;67759;51.972;5.650;2023-12-20T04:54:04;13.4;54.1
78467;SHT31;67759;51.972;5.650;2023-12-20T04:56:33;13.5;54.1
78467;SHT31;67759;51.972;5.650;2023-12-20T04:59:03;13.5;54.1
78467;SHT31;67759;51.972;5.650;2023-12-20T05:01:32;13.5;54.0
78467;SHT31;67759;51.972;5.650;2023-12-20T05:04:01;13.5;53.8
78467;SHT31;67759;51.972;5.650;2023-12-20T05:06:30;13.4;53.8
78467;SHT31;67759;51.972;5.650;2023-12-20T05:08:59;13.4;53.9
78467;SHT31;67759;51.972;5.650;2023-12-20T05:11:28;13.4;54.1
78467;SHT31;67759;51.972;5.650;2023-12-20T05:14:01;13.4;54.2
78467;SHT31;67759;51.972;5.650;2023-12-20T05:16:31;13.5;54.1
78467;SHT31;67759;51.972;5.650;2023-12-20T05:18:59;13.6;53.8
78467;SHT31;67759;51.972;5.650;2023-12-20T05:21:33;13.6;53.4
78467;SHT31;67759;51.972;5.650;2023-12-20T05:24:03;13.7;53.4
78467;SHT31;67759;51.972;5.650;2023-12-20T05:26:32;13.7;53.2
78467;SHT31;67759;51.972;5.650;2023-12-20T05:29:00;13.8;53.1
78467;SHT31;67759;51.972;5.650;2023-12-20T05:31:30;13.8;52.9
78467;SHT31;67759;51.972;5.650;2023-12-20T05:34:01;13.8;52.8
78467;SHT31;67759;51.972;5.650;2023-12-20T05:36:29;13.8;52.7
78467;SHT31;67759;51.972;5.650;2023-12-20T05:38:58;13.8;52.7
78467;SHT31;67759;51.972;5.650;2023-12-20T05:41:27;13.8;52.9
78467;SHT31;67759;51.972;5.650;2023-12-20T05:43:56;13.8;52.8
78467;SHT31;67759;51.972;5.650;2023-12-20T05:46:25;13.9;52.6
78467;SHT31;67759;51.972;5.650;2023-12-20T05:48:55;13.9;52.6
78467;SHT31;67759;51.972;5.650;2023-12-20T05:51:23;13.9;52.8
78467;SHT31;67759;51.972;5.650;2023-12-20T05:53:52;13.9;52.7
78467;SHT31;67759;51.972;5.650;2023-12-20T05:56:20;13.9;52.6
78467;SHT31;67759;51.972;5.650;2023-12-20T05:58:49;13.9;52.5
78467;SHT31;67759;51.972;5.650;2023-12-20T06:01:19;13.9;52.4
78467;SHT31;67759;51.972;5.650;2023-12-20T06:03:50;13.9;52.5
78467;SHT31;67759;51.972;5.650;2023-12-20T06:06:18;13.8;52.7
78467;SHT31;67759;51.972;5.650;2023-12-20T06:08:49;13.8;52.7
78467;SHT31;67759;51.972;5.650;2023-12-20T06:11:18;13.8;52.8
78467;SHT31;67759;51.972;5.650;2023-12-20T06:13:46;13.8;52.9
78467;SHT31;67759;51.972;5.650;2023-12-20T06:16:21;13.8;52.6
78467;SHT31;67759;51.972;5.650;2023-12-20T06:18:49;13.8;52.8
78467;SHT31;67759;51.972;5.650;2023-12-20T06:21:18;13.7;52.7
78467;SHT31;67759;51.972;5.650;2023-12-20T06:23:47;13.7;52.7
78467;SHT31;67759;51.972;5.650;2023-12-20T06:26:15;13.6;53.0
78467;SHT31;67759;51.972;5.650;2023-12-20T06:28:44;13.6;53.0
78467;SHT31;67759;51.972;5.650;2023-12-20T06:31:13;13.6;53.2
78467;SHT31;67759;51.972;5.650;2023-12-20T06:33:43;13.5;53.0
78467;SHT31;67759;51.972;5.650;2023-12-20T06:36:13;13.5;53.2
78467;SHT31;67759;51.972;5.650;2023-12-20T06:38:42;13.4;53.2
78467;SHT31;67759;51.972;5.650;2023-12-20T06:41:13;13.4;53.5
78467;SHT31;67759;51.972;5.650;2023-12-20T06:43:42;13.4;53.5
78467;SHT31;67759;51.972;5.650;2023-12-20T06:46:12;13.4;53.7
78467;SHT31;67759;51.972;5.650;2023-12-20T06:48:41;13.4;53.7
78467;SHT31;67759;51.972;5.650;2023-12-20T06:51:15;13.4;53.9
78467;SHT31;67759;51.972;5.650;2023-12-20T06:53:48;13.4;54.0
78467;SHT31;67759;51.972;5.650;2023-12-20T06:56:17;13.4;53.8
78467;SHT31;67759;51.972;5.650;2023-12-20T06:58:46;13.4;53.6
78467;SHT31;67759;51.972;5.650;2023-12-20T07:01:15;13.4;53.5
78467;SHT31;67759;51.972;5.650;2023-12-20T07:03:44;13.4;53.7
78467;SHT31;67759;51.972;5.650;2023-12-20T07:06:15;13.4;53.7
78467;SHT31;67759;51.972;5.650;2023-12-20T07:08:44;13.4;54.0
78467;SHT31;67759;51.972;5.650;2023-12-20T07:11:13;13.4;54.2
78467;SHT31;67759;51.972;5.650;2023-12-20T07:13:42;13.5;54.2
78467;SHT31;67759;51.972;5.650;2023-12-20T07:16:10;13.5;54.0
78467;SHT31;67759;51.972;5.650;2023-12-20T07:18:39;13.6;53.5
78467;SHT31;67759;51.972;5.650;2023-12-20T07:21:08;13.7;53.2
78467;SHT31;67759;51.972;5.650;2023-12-20T07:23:37;13.7;53.0
78467;SHT31;67759;51.972;5.650;2023-12-20T07:26:06;13.7;53.0
78467;SHT31;67759;51.972;5.650;2023-12-20T07:28:34;13.7;53.4
78467;SHT31;67759;51.972;5.650;2023-12-20T07:31:11;13.8;53.5
78467;SHT31;67759;51.972;5.650;2023-12-20T07:33:42;13.9;53.2
78467;SHT31;67759;51.972;5.650;2023-12-20T07:36:12;14.0;52.8
78467;SHT31;67759;51.972;5.650;2023-12-20T07:38:41;14.1;52.3
78467;SHT31;67759;51.972;5.650;2023-12-20T07:41:11;14.2;51.8
78467;SHT31;67759;51.972;5.650;2023-12-20T07:43:42;14.1;51.9
78467;SHT31;67759;51.972;5.650;2023-12-20T07:46:11;14.1;51.9
78467;SHT31;67759;51.972;5.650;2023-12-20T07:48:40;14.1;52.1
78467;SHT31;67759;51.972;5.650;2023-12-20T07:51:09;14.1;52.4
78467;SHT31;67759;51.972;5.650;2023-12-20T07:53:37;14.0;52.3
78467;SHT31;67759;51.972;5.650;2023-12-20T07:56:15;14.0;52.3
78467;SHT31;67759;51.972;5.650;2023-12-20T07:58:45;13.9;52.5
78467;SHT31;67759;51.972;5.650;2023-12-20T08:01:16;13.9;52.7
78467;SHT31;67759;51.972;5.650;2023-12-20T08:03:46;13.9;52.8
78467;SHT31;67759;51.972;5.650;2023-12-20T08:06:14;13.9;52.9
78467;SHT31;67759;51.972;5.650;2023-12-20T08:08:44;13.9;52.9
78467;SHT31;67759;51.972;5.650;2023-12-20T08:11:13;13.9;52.9
78467;SHT31;67759;51.972;5.650;2023-12-20T08:13:42;13.8;53.1
78467;SHT31;67759;51.972;5.650;2023-12-20T08:16:11;13.8;52.9
78467;SHT31;67759;51.972;5.650;2023-12-20T08:18:42;13.8;53.0
78467;SHT31;67759;51.972;5.650;2023-12-20T08:21:10;13.8;53.3
78467;SHT31;67759;51.972;5.650;2023-12-20T08:23:40;13.8;53.4
78467;SHT31;67759;51.972;5.650;2023-12-20T08:26:09;13.7;53.2
78467;SHT31;67759;51.972;5.650;2023-12-20T08:28:40;13.7;53.4
78467;SHT31;67759;51.972;5.650;2023-12-20T08:31:16;13.7;53.6
78467;SHT31;67759;51.972;5.650;2023-12-20T08:33:46;13.7;53.6
78467;SHT31;67759;51.972;5.650;2023-12-20T08:36:17;13.7;53.8
78467;SHT31;67759;51.972;5.650;2023-12-20T08:38:47;13.7;53.7
78467;SHT31;67759;51.972;5.650;2023-12-20T08:41:20;13.7;53.8
78467;SHT31;67759;51.972;5.650;2023-12-20T08:43:49;13.7;53.8
78467;SHT31;67759;51.972;5.650;2023-12-20T08:46:18;13.7;53.8
78467;SHT31;67759;51.972;5.650;2023-12-20T08:48:47;13.7;53.9
78467;SHT31;67759;51.972;5.650;2023-12-20T08:51:16;13.7;54.1
78467;SHT31;67759;51.972;5.650;2023-12-20T08:53:45;13.6;54.1
78467;SHT31;67759;51.972;5.650;2023-12-20T08:56:14;13.6;54.0
78467;SHT31;67759;51.972;5.650;2023-12-20T08:58:44;13.6;54.3
78467;SHT31;67759;51.972;5.650;2023-12-20T09:01:13;13.6;54.3
78467;SHT31;67759;51.972;5.650;2023-12-20T09:03:43;13.6;54.5
78467;SHT31;67759;51.972;5.650;2023-12-20T09:06:12;13.6;54.7
78467;SHT31;67759;51.972;5.650;2023-12-20T09:08:41;13.6;54.8
78467;SHT31;67759;51.972;5.650;2023-12-20T09:11:10;13.6;55.2
78467;SHT31;67759;51.972;5.650;2023-12-20T09:13:41;13.6;55.3
78467;SHT31;67759;51.972;5.650;2023-12-20T09:16:10;13.6;55.3
78467;SHT31;67759;51.972;5.650;2023-12-20T09:18:40;13.5;55.6
78467;SHT31;67759;51.972;5.650;2023-12-20T09:21:08;13.5;55.5
78467;SHT31;67759;51.972;5.650;2023-12-20T09:23:37;13.4;55.9
78467;SHT31;67759;51.972;5.650;2023-12-20T09:26:06;13.4;56.2
78467;SHT31;67759;51.972;5.650;2023-12-20T09:28:35;13.4;56.3
78467;SHT31;67759;51.972;5.650;2023-12-20T09:31:06;13.3;56.8
78467;SHT31;67759;51.972;5.650;2023-12-20T09:33:37;13.3;57.0
78467;SHT31;67759;51.972;5.650;2023-12-20T09:36:07;13.3;57.0
78467;SHT31;67759;51.972;5.650;2023-12-20T09:38:36;13.4;56.7
78467;SHT31;67759;51.972;5.650;2023-12-20T09:41:05;13.4;56.7
78467;SHT31;67759;51.972;5.650;2023-12-20T09:43:38;13.4;56.9
78467;SHT31;67759;51.972;5.650;2023-12-20T09:46:12;13.4;57.0
78467;SHT31;67759;51.972;5.650;2023-12-20T09:48:45;13.5;56.7
78467;SHT31;67759;51.972;5.650;2023-12-20T09:51:15;13.7;56.5
78467;SHT31;67759;51.972;5.650;2023-12-20T09:53:44;13.8;56.0
78467;SHT31;67759;51.972;5.650;2023-12-20T09:56:17;13.9;55.3
78467;SHT31;67759;51.972;5.650;2023-12-20T09:58:45;14.0;54.9
78467;SHT31;67759;51.972;5.650;2023-12-20T10:01:15;14.0;54.5
78467;SHT31;67759;51.972;5.650;2023-12-20T10:03:44;14.0;54.4
78467;SHT31;67759;51.972;5.650;2023-12-20T10:06:13;14.1;55.0
78467;SHT31;67759;51.972;5.650;2023-12-20T10:08:44;14.1;54.1
78467;SHT31;67759;51.972;5.650;2023-12-20T10:11:14;14.1;54.4
78467;SHT31;67759;51.972;5.650;2023-12-20T10:13:47;14.1;54.4
78467;SHT31;67759;51.972;5.650;2023-12-20T10:16:16;14.1;54.3
78467;SHT31;67759;51.972;5.650;2023-12-20T10:18:45;14.1;54.6
78467;SHT31;67759;51.972;5.650;2023-12-20T10:21:14;14.1;54.6
78467;SHT31;67759;51.972;5.650;2023-12-20T10:23:45;14.1;54.6
78467;SHT31;67759;51.972;5.650;2023-12-20T10:26:21;14.1;54.5
78467;SHT31;67759;51.972;5.650;2023-12-20T10:28:54;14.1;55.1
78467;SHT31;67759;51.972;5.650;2023-12-20T10:31:29;14.1;55.6
78467;SHT31;67759;51.972;5.650;2023-12-20T10:34:00;14.1;55.4
78467;SHT31;67759;51.972;5.650;2023-12-20T10:36:31;14.1;55.2
78467;SHT31;67759;51.972;5.650;2023-12-20T10:39:02;14.1;54.9
78467;SHT31;67759;51.972;5.650;2023-12-20T10:41:33;14.2;55.2
78467;SHT31;67759;51.972;5.650;2023-12-20T10:44:07;14.2;55.3
78467;SHT31;67759;51.972;5.650;2023-12-20T10:46:40;14.2;55.3
78467;SHT31;67759;51.972;5.650;2023-12-20T10:49:15;14.2;55.4
78467;SHT31;67759;51.972;5.650;2023-12-20T10:51:47;14.2;55.4
78467;SHT31;67759;51.972;5.650;2023-12-20T10:54:18;14.2;55.2
78467;SHT31;67759;51.972;5.650;2023-12-20T10:56:48;14.3;55.0
78467;SHT31;67759;51.972;5.650;2023-12-20T10:59:20;14.3;54.7
78467;SHT31;67759;51.972;5.650;2023-12-20T11:01:51;14.3;54.3
78467;SHT31;67759;51.972;5.650;2023-12-20T11:04:25;14.3;54.3
78467;SHT31;67759;51.972;5.650;2023-12-20T11:06:59;14.3;54.4
78467;SHT31;67759;51.972;5.650;2023-12-20T11:09:35;14.3;54.4
78467;SHT31;67759;51.972;5.650;2023-12-20T11:12:13;14.4;54.4
78467;SHT31;67759;51.972;5.650;2023-12-20T11:14:47;14.4;54.0
78467;SHT31;67759;51.972;5.650;2023-12-20T11:17:16;14.5;54.1
78467;SHT31;67759;51.972;5.650;2023-12-20T11:20:06;14.5;54.1
78467;SHT31;67759;51.972;5.650;2023-12-20T11:22:37;14.5;54.4
78467;SHT31;67759;51.972;5.650;2023-12-20T11:25:10;14.6;54.0
78467;SHT31;67759;51.972;5.650;2023-12-20T11:27:42;14.6;53.7
78467;SHT31;67759;51.972;5.650;2023-12-20T11:30:14;14.7;53.8
78467;SHT31;67759;51.972;5.650;2023-12-20T11:32:48;14.7;53.3
78467;SHT31;67759;51.972;5.650;2023-12-20T11:35:20;14.8;52.7
78467;SHT31;67759;51.972;5.650;2023-12-20T11:37:51;14.8;52.6
78467;SHT31;67759;51.972;5.650;2023-12-20T11:40:20;14.8;52.6
78467;SHT31;67759;51.972;5.650;2023-12-20T11:42:53;14.8;52.2
78467;SHT31;67759;51.972;5.650;2023-12-20T11:45:24;14.8;52.7
78467;SHT31;67759;51.972;5.650;2023-12-20T11:47:54;14.8;52.7
78467;SHT31;67759;51.972;5.650;2023-12-20T11:50:24;14.8;52.0
78467;SHT31;67759;51.972;5.650;2023-12-20T11:52:55;14.9;52.0
78467;SHT31;67759;51.972;5.650;2023-12-20T11:55:24;14.9;51.8
78467;SHT31;67759;51.972;5.650;2023-12-20T11:57:53;14.9;52.2
78467;SHT31;67759;51.972;5.650;2023-12-20T12:00:22;15.0;51.9
78467;SHT31;67759;51.972;5.650;2023-12-20T12:02:59;15.0;52.1
78467;SHT31;67759;51.972;5.650;2023-12-20T12:05:33;15.2;51.8
78467;SHT31;67759;51.972;5.650;2023-12-20T12:08:02;15.3;51.9
78467;SHT31;67759;51.972;5.650;2023-12-20T12:10:32;15.5;51.5
78467;SHT31;67759;51.972;5.650;2023-12-20T12:13:01;15.5;51.3
78467;SHT31;67759;51.972;5.650;2023-12-20T12:15:30;15.6;50.9
78467;SHT31;67759;51.972;5.650;2023-12-20T12:18:03;15.6;50.7
78467;SHT31;67759;51.972;5.650;2023-12-20T12:20:34;15.6;50.6
78467;SHT31;67759;51.972;5.650;2023-12-20T12:23:04;15.6;50.5
78467;SHT31;67759;51.972;5.650;2023-12-20T12:25:36;15.6;50.8
78467;SHT31;67759;51.972;5.650;2023-12-20T12:28:05;15.6;50.7
78467;SHT31;67759;51.972;5.650;2023-12-20T12:30:34;15.6;50.5
78467;SHT31;67759;51.972;5.650;2023-12-20T12:33:03;15.6;50.7
78467;SHT31;67759;51.972;5.650;2023-12-20T12:35:32;15.5;51.0
78467;SHT31;67759;51.972;5.650;2023-12-20T12:38:01;15.5;51.2
78467;SHT31;67759;51.972;5.650;2023-12-20T12:40:37;15.5;51.4
78467;SHT31;67759;51.972;5.650;2023-12-20T12:43:06;15.5;51.4
78467;SHT31;67759;51.972;5.650;2023-12-20T12:45:34;15.4;51.6
78467;SHT31;67759;51.972;5.650;2023-12-20T12:48:03;15.4;52.0
78467;SHT31;67759;51.972;5.650;2023-12-20T12:50:32;15.3;52.4
78467;SHT31;67759;51.972;5.650;2023-12-20T12:53:04;15.3;52.7
78467;SHT31;67759;51.972;5.650;2023-12-20T12:55:35;15.3;52.5
78467;SHT31;67759;51.972;5.650;2023-12-20T12:58:04;15.2;52.7
78467;SHT31;67759;51.972;5.650;2023-12-20T13:00:32;15.2;52.7
78467;SHT31;67759;51.972;5.650;2023-12-20T13:03:01;15.2;52.7
78467;SHT31;67759;51.972;5.650;2023-12-20T13:05:30;15.1;52.7
78467;SHT31;67759;51.972;5.650;2023-12-20T13:08:01;15.1;52.9
78467;SHT31;67759;51.972;5.650;2023-12-20T13:10:30;15.2;52.8
78467;SHT31;67759;51.972;5.650;2023-12-20T13:12:58;15.3;52.4
78467;SHT31;67759;51.972;5.650;2023-12-20T13:15:27;15.3;52.2
78467;SHT31;67759;51.972;5.650;2023-12-20T13:17:57;15.3;52.0
78467;SHT31;67759;51.972;5.650;2023-12-20T13:20:26;15.3;52.0
78467;SHT31;67759;51.972;5.650;2023-12-20T13:22:55;15.4;51.8
78467;SHT31;67759;51.972;5.650;2023-12-20T13:25:23;15.4;51.5
78467;SHT31;67759;51.972;5.650;2023-12-20T13:27:53;15.4;51.5
78467;SHT31;67759;51.972;5.650;2023-12-20T13:30:22;15.4;51.5
78467;SHT31;67759;51.972;5.650;2023-12-20T13:32:52;15.4;51.3
78467;SHT31;67759;51.972;5.650;2023-12-20T13:35:20;15.4;51.3
78467;SHT31;67759;51.972;5.650;2023-12-20T13:37:49;15.4;51.6
78467;SHT31;67759;51.972;5.650;2023-12-20T13:40:20;15.4;51.4
78467;SHT31;67759;51.972;5.650;2023-12-20T13:42:49;15.4;51.4
78467;SHT31;67759;51.972;5.650;2023-12-20T13:45:18;15.3;51.4
78467;SHT31;67759;51.972;5.650;2023-12-20T13:47:47;15.3;51.3
78467;SHT31;67759;51.972;5.650;2023-12-20T13:50:16;15.3;51.4
78467;SHT31;67759;51.972;5.650;2023-12-20T13:52:44;15.2;51.3
78467;SHT31;67759;51.972;5.650;2023-12-20T13:55:13;15.1;51.5
78467;SHT31;67759;51.972;5.650;2023-12-20T13:57:43;15.0;51.6
78467;SHT31;67759;51.972;5.650;2023-12-20T14:00:13;14.9;52.0
78467;SHT31;67759;51.972;5.650;2023-12-20T14:02:45;14.9;52.4
78467;SHT31;67759;51.972;5.650;2023-12-20T14:05:14;14.8;52.2
78467;SHT31;67759;51.972;5.650;2023-12-20T14:07:46;14.8;52.4
78467;SHT31;67759;51.972;5.650;2023-12-20T14:10:15;14.7;53.0
78467;SHT31;67759;51.972;5.650;2023-12-20T14:12:44;14.7;53.3
78467;SHT31;67759;51.972;5.650;2023-12-20T14:15:14;14.8;52.9
78467;SHT31;67759;51.972;5.650;2023-12-20T14:17:42;15.0;53.0
78467;SHT31;67759;51.972;5.650;2023-12-20T14:20:13;15.3;51.9
78467;SHT31;67759;51.972;5.650;2023-12-20T14:22:43;15.4;51.0
78467;SHT31;67759;51.972;5.650;2023-12-20T14:25:14;15.4;51.0
78467;SHT31;67759;51.972;5.650;2023-12-20T14:27:43;15.4;50.7
78467;SHT31;67759;51.972;5.650;2023-12-20T14:30:12;15.4;50.7
78467;SHT31;67759;51.972;5.650;2023-12-20T14:32:44;15.3;51.2
78467;SHT31;67759;51.972;5.650;2023-12-20T14:35:17;15.3;51.5
78467;SHT31;67759;51.972;5.650;2023-12-20T14:37:47;15.2;51.3
78467;SHT31;67759;51.972;5.650;2023-12-20T14:40:16;15.1;51.5
78467;SHT31;67759;51.972;5.650;2023-12-20T14:42:45;15.1;51.8
78467;SHT31;67759;51.972;5.650;2023-12-20T14:45:14;15.0;52.3
78467;SHT31;67759;51.972;5.650;2023-12-20T14:47:44;15.0;52.3
78467;SHT31;67759;51.972;5.650;2023-12-20T14:50:16;15.0;52.5
78467;SHT31;67759;51.972;5.650;2023-12-20T14:52:47;14.9;52.7
78467;SHT31;67759;51.972;5.650;2023-12-20T14:55:19;14.9;52.6
78467;SHT31;67759;51.972;5.650;2023-12-20T14:57:48;14.8;52.8
78467;SHT31;67759;51.972;5.650;2023-12-20T15:00:18;14.8;53.0
78467;SHT31;67759;51.972;5.650;2023-12-20T15:02:46;14.8;53.1
78467;SHT31;67759;51.972;5.650;2023-12-20T15:05:17;14.7;53.0
78467;SHT31;67759;51.972;5.650;2023-12-20T15:07:46;14.7;53.0
78467;SHT31;67759;51.972;5.650;2023-12-20T15:10:15;14.7;53.4
78467;SHT31;67759;51.972;5.650;2023-12-20T15:12:47;14.7;53.5
78467;SHT31;67759;51.972;5.650;2023-12-20T15:15:15;14.7;53.6
78467;SHT31;67759;51.972;5.650;2023-12-20T15:17:45;14.7;53.8
78467;SHT31;67759;51.972;5.650;2023-12-20T15:20:14;14.7;53.8
78467;SHT31;67759;51.972;5.650;2023-12-20T15:22:43;14.7;53.7
78467;SHT31;67759;51.972;5.650;2023-12-20T15:25:12;14.6;53.9
78467;SHT31;67759;51.972;5.650;2023-12-20T15:27:46;14.6;54.2
78467;SHT31;67759;51.972;5.650;2023-12-20T15:30:19;14.6;54.1
78467;SHT31;67759;51.972;5.650;2023-12-20T15:32:50;14.6;54.4
78467;SHT31;67759;51.972;5.650;2023-12-20T15:35:18;14.7;54.2
78467;SHT31;67759;51.972;5.650;2023-12-20T15:37:47;14.7;54.0
78467;SHT31;67759;51.972;5.650;2023-12-20T15:40:16;14.7;54.2
78467;SHT31;67759;51.972;5.650;2023-12-20T15:42:45;14.7;54.2
78467;SHT31;67759;51.972;5.650;2023-12-20T15:45:14;14.7;54.4
78467;SHT31;67759;51.972;5.650;2023-12-20T15:47:43;14.6;55.0
78467;SHT31;67759;51.972;5.650;2023-12-20T15:50:12;14.5;55.4
78467;SHT31;67759;51.972;5.650;2023-12-20T15:52:43;14.4;55.7
78467;SHT31;67759;51.972;5.650;2023-12-20T15:55:12;14.3;56.0
78467;SHT31;67759;51.972;5.650;2023-12-20T15:57:40;14.3;56.3
78467;SHT31;67759;51.972;5.650;2023-12-20T16:00:09;14.2;56.6
78467;SHT31;67759;51.972;5.650;2023-12-20T16:02:38;14.2;56.8
78467;SHT31;67759;51.972;5.650;2023-12-20T16:05:07;14.1;57.2
78467;SHT31;67759;51.972;5.650;2023-12-20T16:07:36;14.1;57.5
78467;SHT31;67759;51.972;5.650;2023-12-20T16:10:05;14.0;57.7
78467;SHT31;67759;51.972;5.650;2023-12-20T16:12:34;14.0;57.9
78467;SHT31;67759;51.972;5.650;2023-12-20T16:15:03;13.9;58.0
78467;SHT31;67759;51.972;5.650;2023-12-20T16:17:34;13.9;58.2